Terminal Aerodrome Forecast
Issued by NWS

Home | Current Version | Previous Version | Text Only | Print | Product List | Glossary On
Versions: 1 2 3 4 5 6 7 8 9 10 11 12 13 14 15 16
000
FTUS43 KGRB 280742 AAA
TAFMTW
TAF AMD
KMTW 280742Z 2808/2906 VRB03KT 3SM BR SKC
      TEMPO 2808/2812 1SM BR BKN001
     FM281200 17009KT P6SM FEW100 BKN200
     FM281700 17012KT P6SM SCT050 BKN100
     FM282200 17010KT P6SM VCSH BKN045 OVC100
     FM290200 19006KT 5SM -SHRA OVC035
      TEMPO 2902/2906 2SM TSRA BKN020CB=

USA.gov is the U.S. government's official web portal to all federal, state and local government web resources and services.